Hauptseite
METAR-TAF:

METAR-TAF

Flughäfen :

Flughafen Bacău

Bacau, Rumänien

Breite: 46-35N, Länge: 026-58E, Höhe: 184 m

Beobachtung

Neuester Wetterbericht von vor 13 Minuten, um 14:00 UTC
Wind 8 kt aus Nord/Nordwest
Temperatur 28°C
Luftfeuchtigkeit 48%
Luftdruck 1017 hPa
Sichtweite 10 km oder mehr
Leicht bewölkt in der Höhe von 5000 ft

METAR: LRBC 191400Z 34008KT 9999 FEW050 28/16 Q1017

Zeit: 17:13 (14:13 UTC)

Prognose

Neuester Wetterbericht von vor 3 Stunden und 13 Minuten, um 11:00 UTC
Gültige Prognose vom 19 um 12 UTC bis 19 um 21 UTC
Wind 10 kt aus Nord
Sichtweite 10 km oder mehr
keine Wolken unter 1500 m und keine Kumulonimbus oder Gewitterwolken
Zeitweise
vom 19 um 13 UTC bis 19 um 16 UTC
Aufgelockert bewölkt in der Höhe von 4000 ft, Kumulonimbus.

TAF: LRBC 191100Z 1912/1921 35010KT CAVOK TEMPO 1913/1916 SCT040CB

Wetterbeobachtungen und Prognosen von mehr als 4000 Flughäfen (METAR und TAF Bericht).

Die verfügbaren Stationen werden durch gelbe und rote Markierungen auf der Karte dargestellt.

Führen Sie die Maus auf sie, um den Namen der Station zu sehen.

Darauf klicken, um die Beobachtung von Wetterbeobachtungen und Prognosen zu sehen.

Um die Karte zu ändern : klicken Sie auf den grünen Tasten mit einem schwarzen Kreuz Zum Vergrößern, auf den grünen Button mit einem Gedankenstrich zu verkleinern, oder auf die grünen Pfeile für benachbarte Karten.


METAR-TAF: